Disclaimer

Please do not use the information listed here in-flight or in-navigation, as they are not provided to us by the airports but are provided by volunteers, so they might be outdated.

Search


Regions


Airport information page

Radio informations:
MVENGUE TWR - 118.2 MHz
A/G VOICE RDO - 6559 MHz

Airport informations:
Latitude: 01° 39' 22.16" S
Longitude: 013° 26' 16.93" E
Elevation: 1450 feet - 442 meters
Operating hours: Remarks
Operating agency: Military-civil joint use airport
Timezone: UTC+1
Fuel: Jet A1, without icing nhibitor.

Runway information:
15/33 - 10105 x 148 feet< - >3080 x 45 meters

Recent METARs:
FOON 131500Z VRB03KT 9999 TS SCT012 FEW018CB 26/24 Q1008
FOON 131500Z VRB03KT 9999 TS SCT012 FEW018CB 26/24 Q1008
FOON 131600Z 29005KT 270V330 9999 TS FEW010 FEW016CB 24/23 Q1009

Airport on the map: